createdAt,value
2019-05-10T00:03:14.265Z,2.80
2019-05-10T00:08:35.787Z,3.10
2019-05-10T00:13:42.284Z,3.10
2019-05-10T00:18:45.950Z,2.97
2019-05-10T00:23:49.620Z,2.87
2019-05-10T00:28:53.244Z,2.77
2019-05-10T00:33:56.879Z,2.70
2019-05-10T00:39:00.819Z,2.53
2019-05-10T00:44:04.536Z,2.60
2019-05-10T00:49:08.281Z,2.80
2019-05-10T00:54:11.915Z,3.13
2019-05-10T00:59:15.575Z,2.80
2019-05-10T01:04:19.233Z,2.97
2019-05-10T01:09:23.022Z,2.73
2019-05-10T01:14:26.642Z,2.67
2019-05-10T01:19:30.318Z,2.77
2019-05-10T01:24:33.961Z,2.70
2019-05-10T01:29:37.602Z,2.50
2019-05-10T01:34:41.693Z,2.30
2019-05-10T01:39:47.478Z,2.60
2019-05-10T01:44:51.146Z,2.53
2019-05-10T01:49:54.764Z,2.53
2019-05-10T01:54:58.460Z,2.47
2019-05-10T02:00:02.215Z,2.40
2019-05-10T02:05:05.937Z,3.10
2019-05-10T02:10:09.678Z,2.50
2019-05-10T02:15:13.393Z,2.87
2019-05-10T02:20:17.052Z,2.00
2019-05-10T02:25:20.714Z,2.43
2019-05-10T02:30:24.418Z,3.03
2019-05-10T02:35:28.108Z,2.60
2019-05-10T02:40:31.712Z,2.23
2019-05-10T02:45:35.474Z,2.70
2019-05-10T02:50:39.276Z,2.40
2019-05-10T02:55:43.352Z,2.27
2019-05-10T03:00:47.107Z,2.40
2019-05-10T03:05:50.783Z,2.50
2019-05-10T03:10:58.130Z,2.27
2019-05-10T03:16:02.744Z,2.83
2019-05-10T03:21:06.471Z,2.60
2019-05-10T03:26:10.385Z,2.23
2019-05-10T03:31:14.074Z,2.27
2019-05-10T03:36:17.895Z,2.50
2019-05-10T03:41:21.517Z,2.67
2019-05-10T03:46:25.267Z,2.00
2019-05-10T03:51:28.996Z,2.40
2019-05-10T03:56:32.713Z,2.60
2019-05-10T04:01:36.446Z,2.43
2019-05-10T04:06:40.329Z,2.40
2019-05-10T04:11:44.409Z,2.70
2019-05-10T04:16:48.140Z,2.20
2019-05-10T04:21:51.944Z,2.30
2019-05-10T04:26:55.694Z,2.60
2019-05-10T04:31:59.387Z,2.30
2019-05-10T04:37:03.134Z,2.07
2019-05-10T04:42:06.885Z,2.37
2019-05-10T04:47:10.541Z,2.07
2019-05-10T04:52:14.273Z,2.53
2019-05-10T04:57:17.978Z,2.20
2019-05-10T05:02:22.405Z,2.30
2019-05-10T05:07:26.353Z,2.67
2019-05-10T05:12:29.990Z,2.60
2019-05-10T05:17:33.705Z,2.50
2019-05-10T05:22:37.478Z,2.53
2019-05-10T05:27:41.303Z,2.73
2019-05-10T05:32:45.846Z,2.60
2019-05-10T05:37:49.641Z,2.00
2019-05-10T05:42:53.408Z,2.50
2019-05-10T05:47:57.092Z,2.50
2019-05-10T05:53:03.075Z,2.27
2019-05-10T05:58:07.280Z,3.00
2019-05-10T06:03:19.526Z,2.30
2019-05-10T06:08:22.751Z,2.27
2019-05-10T06:13:29.348Z,2.30
2019-05-10T06:18:28.511Z,2.50
2019-05-10T06:23:34.984Z,2.60
2019-05-10T06:28:57.570Z,2.20
2019-05-10T06:33:44.887Z,2.60
2019-05-10T06:38:49.218Z,2.40
2019-05-10T06:43:54.050Z,2.37
2019-05-10T06:49:07.012Z,2.70
2019-05-10T06:54:03.443Z,2.20
2019-05-10T06:59:13.550Z,3.40
2019-05-10T07:04:13.748Z,2.20
2019-05-10T07:09:17.475Z,2.47
2019-05-10T07:14:25.366Z,2.70
2019-05-10T07:19:28.861Z,3.33
2019-05-10T07:24:32.356Z,3.13
2019-05-10T07:29:42.700Z,2.77
2019-05-10T07:34:41.926Z,3.60
2019-05-10T07:39:45.690Z,3.63
2019-05-10T07:44:49.814Z,4.27
2019-05-10T07:49:53.615Z,4.33
2019-05-10T07:54:57.293Z,4.10
2019-05-10T08:00:03.499Z,3.93
2019-05-10T08:05:11.087Z,4.43
2019-05-10T08:10:11.996Z,4.30
2019-05-10T08:15:15.881Z,3.73
2019-05-10T08:20:33.180Z,4.13
2019-05-10T08:25:29.069Z,3.70
2019-05-10T08:30:36.257Z,3.80
2019-05-10T08:35:43.397Z,3.80
2019-05-10T08:40:45.462Z,3.70
2019-05-10T08:45:50.159Z,3.40
2019-05-10T08:50:57.567Z,2.83
2019-05-10T08:56:02.110Z,2.90
2019-05-10T09:01:26.248Z,3.43
2019-05-10T09:06:22.052Z,3.60
2019-05-10T09:11:26.120Z,3.60
2019-05-10T09:16:39.426Z,3.10
2019-05-10T09:21:35.847Z,3.33
2019-05-10T09:26:46.965Z,3.03
2019-05-10T09:31:51.207Z,3.03
2019-05-10T09:36:55.517Z,3.40
2019-05-10T09:41:59.459Z,3.60
2019-05-10T09:47:04.041Z,3.10
2019-05-10T09:52:12.838Z,3.37
2019-05-10T09:57:13.508Z,2.60
2019-05-10T10:02:18.935Z,3.10
2019-05-10T10:07:24.213Z,3.10
2019-05-10T10:12:29.018Z,2.97
2019-05-10T10:17:40.209Z,3.10
2019-05-10T10:22:38.413Z,3.33
2019-05-10T10:27:42.366Z,3.13
2019-05-10T10:32:47.712Z,3.07
2019-05-10T10:37:51.554Z,3.53
2019-05-10T10:42:57.765Z,3.23
2019-05-10T10:48:02.490Z,3.57
2019-05-10T10:53:07.980Z,3.10
2019-05-10T10:58:12.296Z,4.17
2019-05-10T11:03:16.327Z,4.20
2019-05-10T11:08:20.017Z,3.43
2019-05-10T11:13:40.407Z,3.60
2019-05-10T11:18:31.584Z,3.60
2019-05-10T11:23:39.058Z,3.60
2019-05-10T11:28:44.263Z,3.50
2019-05-10T11:33:47.559Z,3.57
2019-05-10T11:38:53.497Z,3.17
2019-05-10T11:43:57.938Z,3.00
2019-05-10T11:49:02.489Z,3.30
2019-05-10T11:54:06.204Z,3.10
2019-05-10T11:59:15.938Z,3.30
2019-05-10T12:04:24.096Z,3.37
2019-05-10T12:14:26.606Z,3.53
2019-05-10T12:19:36.890Z,4.03
2019-05-10T12:26:06.272Z,3.07
2019-05-10T12:26:13.467Z,5.07
2019-05-10T12:29:41.598Z,4.17
2019-05-10T12:34:45.996Z,4.30
2019-05-10T12:39:52.966Z,3.40
2019-05-10T12:44:56.457Z,3.40
2019-05-10T12:50:02.473Z,3.77
2019-05-10T12:55:06.797Z,3.73
2019-05-10T13:00:13.330Z,3.97
2019-05-10T13:05:16.294Z,3.87
2019-05-10T13:10:20.348Z,4.20
2019-05-10T13:15:30.429Z,3.40
2019-05-10T13:20:30.715Z,3.23
2019-05-10T13:25:35.641Z,3.13
2019-05-10T13:30:59.954Z,3.30
2019-05-10T13:36:04.429Z,3.37
2019-05-10T13:41:08.423Z,3.20
2019-05-10T13:46:32.726Z,4.07
2019-05-10T13:51:36.589Z,3.53
2019-05-10T13:56:45.324Z,3.77
2019-05-10T14:01:49.410Z,4.00
2019-05-10T14:06:51.391Z,3.23
2019-05-10T14:11:55.303Z,3.70
2019-05-10T14:16:59.219Z,4.23
2019-05-10T14:22:03.027Z,4.50
2019-05-10T14:27:29.788Z,3.80
2019-05-10T14:32:31.884Z,4.70
2019-05-10T14:37:35.708Z,4.30
2019-05-10T14:42:39.640Z,4.30
2019-05-10T14:47:47.960Z,4.40
2019-05-10T14:52:49.102Z,4.53
2019-05-10T14:57:53.155Z,4.33
2019-05-10T15:03:02.144Z,4.80
2019-05-10T15:08:02.545Z,4.60
2019-05-10T15:13:06.268Z,4.43
2019-05-10T15:18:10.017Z,4.70
2019-05-10T15:23:13.954Z,4.43
2019-05-10T15:28:17.797Z,5.17
2019-05-10T15:33:22.408Z,4.77
2019-05-10T15:38:26.393Z,4.63
2019-05-10T15:43:30.264Z,4.10
2019-05-10T15:48:36.505Z,4.23
2019-05-10T15:53:39.580Z,4.17
2019-05-10T15:58:43.405Z,3.87
2019-05-10T16:03:47.776Z,3.70
2019-05-10T16:08:51.576Z,3.77
2019-05-10T16:14:00.100Z,4.40
2019-05-10T16:19:00.808Z,3.67
2019-05-10T16:24:04.636Z,3.70
2019-05-10T16:29:08.458Z,4.10
2019-05-10T16:34:12.308Z,4.00
2019-05-10T16:39:16.088Z,3.90
2019-05-10T16:44:20.990Z,4.10
2019-05-10T16:49:25.153Z,4.27
2019-05-10T16:54:29.273Z,3.90
2019-05-10T16:59:35.176Z,3.70
2019-05-10T17:04:39.793Z,3.57
2019-05-10T17:09:43.699Z,3.23
2019-05-10T17:14:50.559Z,3.33
2019-05-10T17:19:53.119Z,3.50
2019-05-10T17:25:02.857Z,3.90
2019-05-10T17:30:02.625Z,3.60
2019-05-10T17:35:06.779Z,3.30
2019-05-10T17:40:12.332Z,3.47
2019-05-10T17:45:16.424Z,3.80
2019-05-10T17:50:20.289Z,4.00
2019-05-10T17:55:25.628Z,3.57
2019-05-10T18:00:29.765Z,3.13
2019-05-10T18:05:33.630Z,4.00
2019-05-10T18:10:37.561Z,3.87
2019-05-10T18:15:41.383Z,3.60
2019-05-10T18:20:45.237Z,3.60
2019-05-10T18:25:52.413Z,4.80
2019-05-10T18:30:55.361Z,3.50
2019-05-10T18:35:59.494Z,4.10
2019-05-10T18:41:05.395Z,4.07
2019-05-10T18:46:08.760Z,3.83
2019-05-10T18:51:12.676Z,4.10
2019-05-10T18:56:16.481Z,3.50
2019-05-10T19:01:20.133Z,4.17
2019-05-10T19:06:24.138Z,4.47
2019-05-10T19:11:33.229Z,3.80
2019-05-10T19:16:34.308Z,3.90
2019-05-10T19:21:38.494Z,4.27
2019-05-10T19:26:42.187Z,4.00
2019-05-10T19:31:46.086Z,4.20
2019-05-10T19:36:50.033Z,4.00
2019-05-10T19:42:03.022Z,4.20
2019-05-10T19:46:59.573Z,3.90
2019-05-10T19:52:03.309Z,3.57
2019-05-10T19:57:15.105Z,3.63
2019-05-10T20:02:12.653Z,3.60
2019-05-10T20:07:16.535Z,3.53
2019-05-10T20:12:20.377Z,3.60
2019-05-10T20:17:24.206Z,3.20
2019-05-10T20:22:28.317Z,3.43
2019-05-10T20:27:32.379Z,3.57
2019-05-10T20:32:36.254Z,3.60
2019-05-10T20:37:40.632Z,4.10
2019-05-10T20:42:44.419Z,3.53
2019-05-10T20:47:48.214Z,4.23
2019-05-10T20:52:52.037Z,3.70
2019-05-10T20:58:15.921Z,3.63
2019-05-10T21:03:19.833Z,3.90
2019-05-10T21:08:23.537Z,3.83
2019-05-10T21:13:27.328Z,3.80
2019-05-10T21:18:31.167Z,3.47
2019-05-10T21:23:35.208Z,3.40
2019-05-10T21:28:38.995Z,4.30
2019-05-10T21:33:42.730Z,4.40
2019-05-10T21:38:46.461Z,3.80
2019-05-10T21:43:50.361Z,4.30
2019-05-10T21:48:54.086Z,3.83
2019-05-10T21:53:57.911Z,5.83
2019-05-10T21:59:01.867Z,5.37
2019-05-10T22:04:05.752Z,4.63
2019-05-10T22:09:10.369Z,6.13
2019-05-10T22:14:14.145Z,9.00
2019-05-10T22:19:18.220Z,10.60
2019-05-10T22:24:21.930Z,10.50
2019-05-10T22:29:25.716Z,10.40
2019-05-10T22:34:29.457Z,12.10
2019-05-10T22:39:33.284Z,14.63
2019-05-10T22:44:37.093Z,14.73
2019-05-10T22:49:40.879Z,18.80
2019-05-10T22:54:44.751Z,23.03
2019-05-10T22:59:48.613Z,26.47
2019-05-10T23:04:52.599Z,29.53
2019-05-10T23:09:56.483Z,25.93
2019-05-10T23:15:00.235Z,24.67
2019-05-10T23:20:04.005Z,24.37
2019-05-10T23:25:07.883Z,21.60
2019-05-10T23:30:11.698Z,23.67
2019-05-10T23:35:15.345Z,23.63
2019-05-10T23:40:19.025Z,25.07
2019-05-10T23:45:22.706Z,30.07
2019-05-10T23:50:26.445Z,40.63
2019-05-10T23:55:30.549Z,34.90
